Time;durP1;ratioP1;P1;durP2;ratioP2;P2;SDS_P1;SDS_P2;PMS_P1;PMS_P2;Temp;Humidity;BMP_temperature;BMP_pressure;BME280_temperature;BME280_humidity;BME280_pressure;Samples;Min_cycle;Max_cycle;Signal;HPM_P1;HPM_P2
2022/12/18 08:18:36;;;;;;;41.25;17.60;;;;;;;-5.50;77.66;97666.31;2094051;27;20582;-70
2022/12/18 08:19:42;;;;;;;35.55;15.55;;;;;;;-5.37;77.27;97662.50;2090237;28;20196;-71
2022/12/18 08:20:43;;;;;;;35.75;16.88;;;;;;;-5.27;76.45;97655.22;2089712;28;20201;-71
2022/12/18 08:21:45;;;;;;;41.53;19.27;;;;;;;-4.98;75.83;97650.22;2089787;28;20276;-72
2022/12/18 08:22:47;;;;;;;39.80;17.90;;;;;;;-4.82;75.06;97660.94;2091029;28;20201;-72
2022/12/18 08:23:50;;;;;;;41.75;18.65;;;;;;;-4.76;74.66;97663.69;2088869;28;20587;-72
2022/12/18 08:24:52;;;;;;;40.55;18.73;;;;;;;-4.70;73.78;97663.00;2089637;28;20686;-73
2022/12/18 08:25:53;;;;;;;38.00;17.38;;;;;;;-4.92;73.62;97637.66;2089942;28;20202;-73
2022/12/18 08:26:56;;;;;;;40.55;17.85;;;;;;;-4.72;74.35;97654.41;2090760;28;20670;-73
2022/12/18 08:28:18;;;;;;;36.17;17.00;;;;;;;-4.00;72.82;97663.38;2089688;28;20222;-72
2022/12/18 08:29:19;;;;;;;34.28;18.23;;;;;;;-3.63;72.35;97661.91;2089740;28;20231;-73
2022/12/18 08:30:25;;;;;;;40.92;17.90;;;;;;;-3.32;70.50;97655.91;2086713;28;20203;-74
2022/12/18 08:31:28;;;;;;;41.75;20.08;;;;;;;-2.88;69.99;97656.97;2087408;28;20204;-74
2022/12/18 08:32:30;;;;;;;35.70;17.63;;;;;;;-3.10;69.03;97658.16;2089956;28;20209;-74
2022/12/18 08:33:31;;;;;;;34.78;18.00;;;;;;;-3.04;68.81;97654.06;2084636;28;20227;-74
2022/12/18 08:34:33;;;;;;;44.33;19.38;;;;;;;-2.98;67.75;97667.00;2090749;28;20196;-74
2022/12/18 08:35:36;;;;;;;41.75;18.83;;;;;;;-3.25;68.92;97656.94;2088595;28;20592;-75
2022/12/18 08:36:45;;;;;;;38.55;18.33;;;;;;;-3.16;68.57;97662.28;2091394;28;20762;-75
2022/12/18 08:37:47;;;;;;;40.85;19.67;;;;;;;-3.31;69.08;97659.34;2089235;28;20200;-74
2022/12/18 08:38:48;;;;;;;39.60;17.05;;;;;;;-2.85;68.49;97665.59;2086614;28;20531;-74
2022/12/18 08:39:50;;;;;;;38.25;18.45;;;;;;;-3.40;68.52;97648.84;2089804;28;20215;-72
2022/12/18 08:41:01;;;;;;;40.55;18.63;;;;;;;-2.62;67.10;97660.16;2091102;28;20556;-71
2022/12/18 08:44:43;;;;;;;41.75;19.35;;;;;;;-2.81;66.07;97664.88;2089309;28;20241;-72
2022/12/18 08:45:45;;;;;;;40.40;18.77;;;;;;;-2.41;66.19;97656.38;2090083;28;20564;-58
2022/12/18 08:46:47;;;;;;;33.70;16.88;;;;;;;-2.19;66.69;97652.63;2089361;28;20196;-57
2022/12/18 08:47:48;;;;;;;37.50;17.80;;;;;;;-2.43;65.73;97655.50;2089783;28;20199;-57
2022/12/18 08:48:54;;;;;;;32.05;17.58;;;;;;;-2.16;65.33;97645.00;2088459;28;20196;-58
2022/12/18 08:49:56;;;;;;;38.92;18.60;;;;;;;-1.89;64.35;97652.41;2090345;28;20197;-58
2022/12/18 08:50:59;;;;;;;39.80;20.08;;;;;;;-3.03;66.41;97647.28;2089893;28;20196;-58
2022/12/18 08:52:01;;;;;;;38.05;18.92;;;;;;;-2.06;65.73;97643.50;2097202;28;20203;-58
2022/12/18 08:53:02;;;;;;;39.70;19.55;;;;;;;-1.48;64.28;97639.53;2097435;28;20238;-58
2022/12/18 08:54:05;;;;;;;36.22;19.00;;;;;;;-0.87;63.19;97646.59;2087811;28;20847;-58
2022/12/18 08:55:08;;;;;;;41.65;19.65;;;;;;;-0.81;61.62;97643.28;2089664;28;20192;-58
2022/12/18 08:56:09;;;;;;;46.15;20.27;;;;;;;-1.37;61.81;97642.31;2090594;28;20238;-58
2022/12/18 08:57:11;;;;;;;38.78;19.77;;;;;;;-2.04;63.31;97647.81;2090125;28;20211;-58
2022/12/18 08:58:12;;;;;;;43.13;20.55;;;;;;;-1.48;62.98;97621.59;2090430;28;20249;-58
2022/12/18 08:59:14;;;;;;;38.22;19.95;;;;;;;-1.42;61.99;97651.59;2088174;28;20193;-58
2022/12/18 09:00:20;;;;;;;39.13;19.13;;;;;;;-1.04;61.73;97642.88;2087595;28;20902;-58
2022/12/18 09:01:22;;;;;;;41.25;19.65;;;;;;;-1.00;61.44;97636.97;2089973;28;20205;-58
2022/12/18 09:02:24;;;;;;;38.67;19.30;;;;;;;-0.50;60.31;97638.59;2089340;28;20385;-58
2022/12/18 09:03:25;;;;;;;37.70;19.02;;;;;;;-0.64;60.10;97648.66;2088808;28;20275;-60
2022/12/18 09:04:27;;;;;;;37.20;18.40;;;;;;;-1.10;61.96;97646.19;2089618;28;20727;-60
2022/12/18 09:05:28;;;;;;;40.50;19.70;;;;;;;-0.52;59.98;97648.84;2090326;28;20292;-61
2022/12/18 09:06:30;;;;;;;39.50;19.77;;;;;;;-0.45;60.30;97634.41;2089373;28;20328;-60
2022/12/18 09:07:32;;;;;;;38.60;18.90;;;;;;;0.20;59.24;97617.28;2091808;28;20207;-60
2022/12/18 09:08:36;;;;;;;40.83;19.02;;;;;;;0.55;57.51;97633.97;2089300;28;20255;-60
2022/12/18 09:09:38;;;;;;;43.42;20.05;;;;;;;0.56;57.10;97639.13;2091087;28;20775;-60
2022/12/18 09:10:48;;;;;;;39.25;18.73;;;;;;;0.05;58.17;97633.38;2089933;28;20197;-61
2022/12/18 09:11:49;;;;;;;42.90;20.23;;;;;;;-0.02;58.06;97629.00;2091302;28;20817;-61
2022/12/18 09:12:51;;;;;;;41.78;19.40;;;;;;;-0.14;59.12;97626.28;2085504;28;20212;-61
2022/12/18 09:13:53;;;;;;;42.72;21.08;;;;;;;-1.34;60.50;97623.56;2090499;28;20678;-61
2022/12/18 09:14:56;;;;;;;44.22;19.77;;;;;;;-0.45;61.41;97620.72;2088207;28;20212;-59
2022/12/18 09:15:58;;;;;;;193.18;100.43;;;;;;;-0.46;60.51;97622.41;2089138;28;20204;-69
2022/12/18 09:17:00;;;;;;;47.90;23.25;;;;;;;-0.63;60.60;97624.72;2090497;28;20195;-70
2022/12/18 09:18:01;;;;;;;45.35;21.45;;;;;;;-0.17;59.29;97625.41;2089290;28;20417;-77
2022/12/18 09:19:04;;;;;;;44.42;21.13;;;;;;;-0.45;59.32;97620.72;2080256;28;20197;-71
2022/12/18 09:20:10;;;;;;;76.63;32.88;;;;;;;-0.72;61.84;97628.00;2088291;28;20648;-66
2022/12/18 09:21:20;;;;;;;43.50;19.50;;;;;;;-0.18;60.93;97627.94;2088512;28;20200;-67
2022/12/18 09:22:21;;;;;;;46.03;21.35;;;;;;;-0.06;59.38;97628.09;2089644;28;20197;-63
2022/12/18 09:23:23;;;;;;;43.78;19.60;;;;;;;-0.43;60.74;97625.03;2088833;28;20776;-63
2022/12/18 09:24:24;;;;;;;47.60;21.90;;;;;;;-0.31;59.64;97610.66;2089825;28;20208;-63
2022/12/18 09:25:31;;;;;;;44.70;20.45;;;;;;;-0.39;59.93;97629.38;2089163;28;21089;-68
2022/12/18 09:26:32;;;;;;;41.30;18.88;;;;;;;-0.22;59.81;97629.59;2090170;28;20198;-68
2022/12/18 09:27:39;;;;;;;39.63;20.65;;;;;;;-0.35;59.92;97623.44;2089256;28;20228;-69
2022/12/18 09:28:41;;;;;;;44.80;22.05;;;;;;;-0.20;60.48;97630.47;2088181;28;20201;-68
2022/12/18 09:29:43;;;;;;;42.88;20.65;;;;;;;0.65;58.30;97625.50;2083985;28;20619;-68
2022/12/18 09:30:48;;;;;;;49.95;21.17;;;;;;;0.04;59.09;97621.38;2086205;28;20194;-68
2022/12/18 09:31:52;;;;;;;48.63;21.75;;;;;;;0.71;57.69;97619.56;2086838;28;20205;-67
2022/12/18 09:32:54;;;;;;;42.75;22.00;;;;;;;1.70;55.10;97616.06;2085465;28;20188;-68
2022/12/18 09:33:56;;;;;;;44.30;20.73;;;;;;;3.66;52.43;97607.88;2082648;28;20247;-67
2022/12/18 09:34:58;;;;;;;42.78;20.70;;;;;;;4.07;49.32;97616.38;2084467;28;20197;-68
2022/12/18 09:36:02;;;;;;;44.65;19.00;;;;;;;4.84;47.82;97616.03;2083085;28;20716;-67
2022/12/18 09:37:03;;;;;;;38.80;17.90;;;;;;;6.06;45.27;97614.13;2077876;28;20193;-67
2022/12/18 09:38:05;;;;;;;38.90;19.10;;;;;;;6.29;44.60;97621.63;2084333;28;20706;-67
2022/12/18 09:39:06;;;;;;;44.60;20.77;;;;;;;6.10;43.16;97597.66;2082900;28;20726;-68
2022/12/18 09:40:16;;;;;;;41.15;18.85;;;;;;;6.43;43.60;97618.03;2082886;28;20205;-67
2022/12/18 09:41:32;;;;;;;47.45;21.10;;;;;;;6.68;43.20;97622.00;2084402;28;20591;-68
2022/12/18 09:42:34;;;;;;;44.90;18.35;;;;;;;5.40;44.69;97626.81;2086449;28;20231;-68
2022/12/18 09:43:42;;;;;;;44.35;20.33;;;;;;;6.05;44.35;97628.81;2083117;28;20223;-67
2022/12/18 09:44:50;;;;;;;39.60;19.98;;;;;;;7.66;41.65;97613.56;2084115;28;20371;-67
2022/12/18 09:45:58;;;;;;;41.20;19.10;;;;;;;7.62;40.82;97618.88;2085203;28;20193;-65
2022/12/18 09:47:20;;;;;;;38.97;19.30;;;;;;;5.50;44.20;97621.59;2083710;28;20615;-65
2022/12/18 09:48:29;;;;;;;39.72;19.27;;;;;;;5.80;44.11;97614.38;2083176;28;20225;-65
2022/12/18 09:49:34;;;;;;;40.38;19.55;;;;;;;7.03;42.86;97619.78;2082399;28;21442;-66
2022/12/18 09:50:39;;;;;;;47.45;19.20;;;;;;;8.34;40.85;97621.84;2083133;28;20196;-65
2022/12/18 09:52:08;;;;;;;41.85;20.23;;;;;;;9.17;39.40;97624.44;2084977;28;20208;-65
2022/12/18 09:53:22;;;;;;;42.00;18.63;;;;;;;8.71;39.80;97625.47;2085813;28;20243;-65
2022/12/18 09:54:35;;;;;;;39.50;19.13;;;;;;;7.94;39.64;97620.88;2094255;28;20290;-64
2022/12/18 09:55:42;;;;;;;36.17;17.65;;;;;;;5.10;43.44;97630.50;2088513;28;20279;-65
2022/12/18 09:56:44;;;;;;;41.97;19.25;;;;;;;5.56;44.70;97600.78;2080205;28;20295;-65
2022/12/18 09:57:53;;;;;;;41.03;18.38;;;;;;;5.90;44.07;97631.53;2080223;28;20250;-65
2022/12/18 09:59:03;;;;;;;36.25;17.25;;;;;;;6.02;43.53;97630.59;2084178;28;20303;-66
2022/12/18 10:00:13;;;;;;;45.05;20.02;;;;;;;5.67;43.98;97632.63;2086069;28;20231;-66
2022/12/18 10:01:20;;;;;;;44.15;20.05;;;;;;;6.18;43.31;97636.47;2084850;28;20676;-67
2022/12/18 10:02:24;;;;;;;43.38;20.00;;;;;;;5.70;43.88;97639.50;2084495;28;20284;-66
2022/12/18 10:03:27;;;;;;;37.90;16.77;;;;;;;8.83;40.12;97635.63;2083772;28;20311;-66
2022/12/18 10:04:31;;;;;;;40.75;17.27;;;;;;;9.66;38.43;97626.75;2084450;28;20275;-66
2022/12/18 10:05:39;;;;;;;37.05;18.83;;;;;;;10.24;36.75;97629.56;2082875;28;20293;-66
2022/12/18 10:07:02;;;;;;;39.05;19.23;;;;;;;9.44;37.50;97627.28;2084720;28;20219;-65
2022/12/18 10:08:39;;;;;;;36.90;17.83;;;;;;;10.13;37.22;97622.00;2083863;28;20221;-66
2022/12/18 10:10:28;;;;;;;37.72;17.02;;;;;;;11.17;34.76;97585.03;2084111;28;20208;-66
2022/12/18 10:12:06;;;;;;;37.70;17.90;;;;;;;7.77;40.37;97633.31;2066912;28;20700;-65
2022/12/18 10:13:22;;;;;;;40.13;17.70;;;;;;;10.29;36.52;97630.28;2083480;28;20685;-65
2022/12/18 10:14:40;;;;;;;41.13;18.67;;;;;;;11.41;35.91;97630.47;2083772;28;20319;-65
2022/12/18 10:15:59;;;;;;;36.47;17.77;;;;;;;12.19;34.08;97637.47;2082862;28;20696;-65
2022/12/18 10:17:35;;;;;;;38.25;19.52;;;;;;;7.15;39.34;97634.34;2084027;28;20204;-65
2022/12/18 10:19:22;;;;;;;36.45;17.45;;;;;;;7.79;39.91;97645.41;2076431;28;20217;-60
2022/12/18 10:20:41;;;;;;;41.00;19.00;;;;;;;9.26;39.37;97652.88;2075075;28;20209;-61
2022/12/18 10:21:51;;;;;;;35.08;17.80;;;;;;;10.35;36.50;97637.06;2074670;28;20205;-61
2022/12/18 10:23:11;;;;;;;39.85;18.92;;;;;;;10.41;36.41;97643.03;2071412;28;20202;-60
2022/12/18 10:24:17;;;;;;;42.35;18.55;;;;;;;8.58;38.71;97646.56;2072794;28;20557;-58
2022/12/18 10:25:25;;;;;;;37.20;17.60;;;;;;;8.59;39.31;97637.00;2076779;28;20225;-57
2022/12/18 10:26:27;;;;;;;35.95;17.90;;;;;;;11.00;36.82;97641.31;2071659;28;20198;-57
2022/12/18 10:27:29;;;;;;;40.50;18.23;;;;;;;10.96;35.83;97642.31;2072561;28;20198;-57
2022/12/18 10:28:33;;;;;;;40.78;19.88;;;;;;;10.05;37.21;97626.59;2072947;28;20229;-57
2022/12/18 10:29:34;;;;;;;36.25;18.33;;;;;;;11.01;36.08;97640.41;2076327;28;20581;-57
2022/12/18 10:30:38;;;;;;;42.25;19.83;;;;;;;11.16;34.87;97633.88;2072030;28;20193;-57
2022/12/18 10:31:40;;;;;;;41.08;19.50;;;;;;;10.38;35.56;97639.66;2072704;28;20331;-58
2022/12/18 10:32:42;;;;;;;42.70;19.40;;;;;;;8.40;38.68;97636.50;2074172;28;20206;-58
2022/12/18 10:33:44;;;;;;;39.55;18.90;;;;;;;7.88;40.30;97648.75;2074977;28;20205;-57
2022/12/18 10:34:50;;;;;;;39.55;19.17;;;;;;;9.03;38.78;97636.91;2075342;28;20193;-57
2022/12/18 10:35:58;;;;;;;42.33;19.52;;;;;;;10.25;37.46;97641.72;2073991;28;20198;-57
2022/12/18 10:37:06;;;;;;;40.55;19.30;;;;;;;9.96;36.77;97638.13;2074685;28;20578;-57
2022/12/18 10:38:22;;;;;;;40.30;18.60;;;;;;;11.83;34.98;97637.78;2074423;28;21243;-57
2022/12/18 10:39:26;;;;;;;37.40;19.00;;;;;;;8.48;38.65;97650.22;2076811;28;20316;-57
2022/12/18 10:40:27;;;;;;;40.63;20.30;;;;;;;7.14;39.96;97656.00;2076567;28;20204;-57
2022/12/18 10:41:30;;;;;;;37.65;18.90;;;;;;;6.21;41.92;97642.50;2070878;28;20198;-57
2022/12/18 10:42:32;;;;;;;36.28;18.52;;;;;;;6.68;42.32;97636.75;2072673;28;20236;-58
2022/12/18 10:43:38;;;;;;;41.35;19.45;;;;;;;6.74;42.16;97644.41;2074782;28;20682;-57
2022/12/18 10:44:40;;;;;;;41.08;17.52;;;;;;;8.09;40.67;97648.34;2071899;28;20284;-57
2022/12/18 10:45:56;;;;;;;39.10;18.33;;;;;;;7.53;41.09;97635.47;2073170;28;20240;-58
2022/12/18 10:47:04;;;;;;;100.55;47.88;;;;;;;8.50;40.31;97644.09;2075135;28;20221;-57
2022/12/18 10:48:20;;;;;;;218.15;106.53;;;;;;;8.16;39.55;97646.47;2074518;28;20311;-57
2022/12/18 10:49:48;;;;;;;39.85;20.50;;;;;;;9.24;39.76;97653.81;2071815;28;20271;-62
2022/12/18 10:50:53;;;;;;;45.50;19.73;;;;;;;8.79;39.89;97641.78;2075162;28;20236;-63
2022/12/18 10:52:22;;;;;;;40.25;17.83;;;;;;;8.84;38.20;97650.34;2073660;28;20208;-63
2022/12/18 10:53:26;;;;;;;53.33;23.63;;;;;;;7.38;40.70;97644.38;2074774;28;20687;-63
2022/12/18 10:54:34;;;;;;;46.00;21.85;;;;;;;5.92;43.51;97645.38;2076240;28;20205;-63
2022/12/18 10:55:39;;;;;;;44.95;19.98;;;;;;;7.26;42.37;97634.16;2074960;28;20200;-63
2022/12/18 10:56:41;;;;;;;38.13;17.73;;;;;;;8.23;40.73;97618.59;2074567;28;20206;-63
2022/12/18 10:57:44;;;;;;;44.88;20.83;;;;;;;7.13;41.95;97633.50;2070954;28;20201;-62
2022/12/18 10:59:05;;;;;;;44.55;18.90;;;;;;;8.66;40.33;97638.59;2074051;28;20206;-63
2022/12/18 11:00:30;;;;;;;39.50;19.25;;;;;;;9.64;39.13;97634.59;2072505;28;20198;-63
2022/12/18 11:01:48;;;;;;;43.53;20.65;;;;;;;8.34;39.92;97621.84;2076072;28;20205;-62
2022/12/18 11:02:50;;;;;;;44.15;21.52;;;;;;;8.31;40.60;97632.31;2074593;28;20204;-63
2022/12/18 11:03:54;;;;;;;42.85;20.50;;;;;;;9.55;39.07;97629.59;2078426;28;20197;-63
2022/12/18 11:05:05;;;;;;;42.22;20.50;;;;;;;8.54;40.63;97629.28;2078603;28;20274;-63
2022/12/18 11:06:08;;;;;;;38.38;19.10;;;;;;;9.16;40.18;97625.31;2072503;28;20780;-63
2022/12/18 11:07:10;;;;;;;42.83;19.85;;;;;;;9.83;38.34;97621.94;2075406;28;20208;-63
2022/12/18 11:08:22;;;;;;;45.50;20.45;;;;;;;11.68;35.92;97617.38;2074394;28;20320;-63
2022/12/18 11:09:31;;;;;;;41.22;19.27;;;;;;;10.55;37.00;97616.53;2075372;28;20579;-63
2022/12/18 11:10:39;;;;;;;40.60;19.63;;;;;;;9.47;37.50;97606.31;2075694;28;20220;-63
2022/12/18 11:11:47;;;;;;;39.28;19.80;;;;;;;8.42;39.76;97614.75;2075904;28;20243;-63
2022/12/18 11:12:49;;;;;;;38.25;18.33;;;;;;;9.13;38.56;97620.19;2075009;28;20214;-63
2022/12/18 11:14:05;;;;;;;41.42;22.35;;;;;;;8.10;40.26;97612.78;2075213;28;20279;-63
2022/12/18 11:15:17;;;;;;;43.60;21.38;;;;;;;10.51;37.31;97614.03;2074973;28;20189;-63
2022/12/18 11:16:19;;;;;;;41.13;20.15;;;;;;;9.94;37.76;97603.38;2082188;28;20300;-62
2022/12/18 11:17:35;;;;;;;40.55;18.65;;;;;;;9.60;38.58;97612.97;2082500;28;20258;-63
2022/12/18 11:18:36;;;;;;;42.60;19.77;;;;;;;8.36;40.08;97625.28;2070914;28;20307;-62
2022/12/18 11:19:41;;;;;;;43.28;18.98;;;;;;;8.48;39.55;97622.47;2075062;28;20208;-62
2022/12/18 11:20:50;;;;;;;40.58;18.90;;;;;;;9.75;39.32;97621.28;2074973;28;20205;-62
2022/12/18 11:21:59;;;;;;;39.35;19.80;;;;;;;9.38;38.40;97636.09;2073722;28;20205;-62
2022/12/18 11:23:10;;;;;;;42.28;21.20;;;;;;;9.11;39.17;97630.63;2075304;28;20691;-62
2022/12/18 11:24:23;;;;;;;44.60;21.15;;;;;;;7.83;40.56;97623.69;2075432;28;20251;-62
2022/12/18 11:25:28;;;;;;;40.45;19.67;;;;;;;7.79;41.04;97622.00;2074031;28;20204;-63
2022/12/18 11:26:36;;;;;;;43.03;19.50;;;;;;;6.91;41.97;97575.81;2075123;28;20243;-62
2022/12/18 11:27:39;;;;;;;43.92;20.95;;;;;;;8.22;40.78;97627.31;2075283;28;20731;-62
2022/12/18 11:28:45;;;;;;;37.45;18.58;;;;;;;7.37;41.31;97616.66;2071435;28;20232;-61
2022/12/18 11:29:50;;;;;;;49.88;22.52;;;;;;;6.60;42.89;97618.69;2073142;28;20213;-62
2022/12/18 11:31:12;;;;;;;42.35;20.70;;;;;;;6.31;44.13;97624.22;2074830;28;20194;-62
2022/12/18 11:32:35;;;;;;;45.22;20.02;;;;;;;6.66;43.97;97622.91;2075661;28;20624;-62
2022/12/18 11:33:41;;;;;;;38.30;19.20;;;;;;;8.66;41.59;97620.38;2074718;28;20304;-57
2022/12/18 11:35:10;;;;;;;48.47;19.45;;;;;;;5.14;44.92;97572.66;2074513;28;20660;-57
2022/12/18 11:36:11;;;;;;;38.90;19.02;;;;;;;5.71;44.83;97629.16;2076331;28;20201;-57
2022/12/18 11:37:15;;;;;;;43.60;20.35;;;;;;;5.28;46.27;97620.88;2075245;28;20848;-56
2022/12/18 11:38:23;;;;;;;46.50;21.63;;;;;;;5.38;46.13;97615.63;2073248;28;20305;-56
2022/12/18 11:39:25;;;;;;;40.85;20.23;;;;;;;5.84;45.56;97614.34;2074293;28;20240;-57
2022/12/18 11:40:37;;;;;;;38.92;20.17;;;;;;;6.18;45.76;97611.41;2076211;28;20561;-57
2022/12/18 11:42:11;;;;;;;43.10;19.63;;;;;;;5.23;46.52;97611.44;2073764;28;20204;-57
2022/12/18 11:43:28;;;;;;;43.38;19.05;;;;;;;5.53;46.46;97618.94;2074640;28;20219;-57
2022/12/18 11:44:43;;;;;;;43.05;19.63;;;;;;;6.16;45.47;97607.13;2074927;28;20259;-57
2022/12/18 11:46:04;;;;;;;49.97;20.48;;;;;;;7.40;43.22;97611.41;2074730;28;20202;-58
2022/12/18 11:47:33;;;;;;;46.53;20.02;;;;;;;6.48;43.75;97604.09;2075434;28;20193;-58
2022/12/18 11:48:49;;;;;;;42.70;19.75;;;;;;;5.88;46.16;97610.81;2064676;28;20217;-58
2022/12/18 11:49:52;;;;;;;39.83;19.05;;;;;;;5.14;46.09;97598.56;2075183;28;20847;-57
2022/12/18 11:50:57;;;;;;;44.88;21.38;;;;;;;5.70;46.19;97606.69;2075673;28;20197;-58
2022/12/18 11:52:16;;;;;;;41.60;19.55;;;;;;;5.10;49.43;97603.75;2074498;28;20197;-59
2022/12/18 11:53:19;;;;;;;42.30;20.30;;;;;;;4.89;49.41;97600.47;2074815;28;20254;-57
2022/12/18 11:54:20;;;;;;;48.75;22.33;;;;;;;3.68;49.64;97592.38;2074296;28;20206;-57
2022/12/18 11:55:22;;;;;;;44.55;20.70;;;;;;;3.41;51.67;97604.47;2075786;28;20197;-57
2022/12/18 11:56:36;;;;;;;45.92;20.17;;;;;;;3.62;51.00;97606.16;2074960;28;20321;-57
2022/12/18 11:57:59;;;;;;;48.60;21.38;;;;;;;3.83;51.91;97601.81;2074386;28;20288;-57
2022/12/18 11:59:07;;;;;;;42.70;19.30;;;;;;;3.57;52.03;97608.75;2073854;28;20662;-58
2022/12/18 12:00:20;;;;;;;45.72;22.77;;;;;;;3.81;51.51;97595.78;2075433;28;20228;-57
2022/12/18 12:01:30;;;;;;;45.13;20.85;;;;;;;4.09;50.78;97594.84;2071244;28;20601;-62
2022/12/18 12:02:54;;;;;;;49.53;20.77;;;;;;;4.15;50.57;97599.13;2074744;28;20291;-62
2022/12/18 12:04:09;;;;;;;46.03;21.27;;;;;;;3.80;51.18;97594.94;2074811;28;20813;-62
2022/12/18 12:05:33;;;;;;;50.35;21.40;;;;;;;3.45;51.95;97600.16;2074496;28;20193;-62
2022/12/18 12:06:59;;;;;;;43.97;20.35;;;;;;;3.35;51.70;97600.19;2074787;28;20231;-62
2022/12/18 12:08:18;;;;;;;45.55;19.42;;;;;;;2.50;54.93;97569.16;2074475;28;20351;-62
2022/12/18 12:09:36;;;;;;;50.25;19.88;;;;;;;2.87;54.19;97600.16;2074839;28;20750;-63
2022/12/18 12:11:16;;;;;;;44.17;20.95;;;;;;;2.22;54.53;97596.53;2075370;28;20280;-62
2022/12/18 12:12:49;;;;;;;971.45;514.67;;;;;;;1.92;55.50;97587.84;2057583;28;20924;-60
2022/12/18 12:14:08;;;;;;;359.50;212.95;;;;;;;1.26;57.50;97596.03;2074301;28;20222;-56
2022/12/18 12:15:28;;;;;;;62.13;25.88;;;;;;;2.15;57.14;97585.38;2074519;28;20819;-62
2022/12/18 12:16:35;;;;;;;48.30;21.83;;;;;;;2.13;56.68;97592.22;2074816;28;20205;-62
2022/12/18 12:17:49;;;;;;;45.10;20.95;;;;;;;2.20;56.29;97581.09;2074619;28;20197;-61
2022/12/18 12:18:56;;;;;;;51.88;21.67;;;;;;;1.47;57.64;97585.00;2075112;28;20229;-61
2022/12/18 12:20:20;;;;;;;51.13;23.08;;;;;;;2.01;57.26;97580.16;2071322;28;20296;-62
2022/12/18 12:21:42;;;;;;;49.20;22.13;;;;;;;1.85;57.33;97579.22;2074221;28;20185;-61
2022/12/18 12:23:12;;;;;;;45.80;19.63;;;;;;;0.90;58.74;97582.88;2074308;28;20204;-61
2022/12/18 12:24:33;;;;;;;46.70;22.00;;;;;;;0.32;61.17;97575.47;2076582;28;20205;-61
2022/12/18 12:26:04;;;;;;;46.97;21.70;;;;;;;-0.08;62.72;97583.56;2074863;28;20193;-62
2022/12/18 12:27:16;;;;;;;55.17;24.00;;;;;;;-0.06;63.51;97581.88;2072130;28;20252;-62
2022/12/18 12:28:52;;;;;;;52.00;22.17;;;;;;;-0.06;63.12;97583.59;2074619;28;20255;-63
2022/12/18 12:30:14;;;;;;;48.05;21.60;;;;;;;0.14;62.96;97587.25;2075084;28;20205;-62
2022/12/18 12:31:16;;;;;;;47.97;23.08;;;;;;;0.30;62.85;97583.13;2075288;28;20197;-62
2022/12/18 12:32:43;;;;;;;53.15;23.35;;;;;;;1.11;61.18;97591.63;2074383;28;20545;-62
2022/12/18 12:34:00;;;;;;;54.15;21.80;;;;;;;1.46;60.19;97589.31;2076317;28;20661;-63
2022/12/18 12:35:26;;;;;;;50.63;22.40;;;;;;;1.41;59.98;97577.25;2074587;28;20339;-62
2022/12/18 12:36:51;;;;;;;50.50;21.88;;;;;;;0.66;61.74;97596.38;2071035;28;20201;-62
2022/12/18 12:37:59;;;;;;;54.92;23.27;;;;;;;0.12;61.97;97590.66;2071563;28;20197;-63
2022/12/18 12:39:06;;;;;;;46.38;21.73;;;;;;;0.01;64.39;97582.81;2074210;28;20196;-62
2022/12/18 12:40:14;;;;;;;55.70;22.55;;;;;;;-0.50;63.58;97602.69;2075754;28;20620;-62
2022/12/18 12:43:12;;;;;;;58.45;22.85;;;;;;;0.02;64.11;97602.50;2072639;28;20660;-63
2022/12/18 12:44:24;;;;;;;49.05;22.00;;;;;;;-0.40;63.89;97604.53;2073291;28;20209;-62
2022/12/18 12:45:38;;;;;;;48.90;21.60;;;;;;;0.14;64.73;97600.09;2073484;28;20237;-63
2022/12/18 12:46:41;;;;;;;50.50;21.98;;;;;;;-0.32;64.32;97603.78;2073744;28;20780;-58
2022/12/18 12:47:46;;;;;;;54.25;22.95;;;;;;;-0.14;65.14;97598.03;2072792;28;20198;-58
2022/12/18 12:48:58;;;;;;;46.92;21.33;;;;;;;0.11;63.84;97599.19;2071266;28;20198;-58
2022/12/18 12:50:03;;;;;;;46.10;22.27;;;;;;;0.04;64.45;97605.97;2074629;28;20645;-58
2022/12/18 12:51:13;;;;;;;44.95;19.70;;;;;;;-0.14;64.31;97600.59;2074874;28;20228;-58
2022/12/18 12:52:39;;;;;;;51.35;21.13;;;;;;;0.12;63.96;97606.91;2073658;28;20665;-58
2022/12/18 12:53:41;;;;;;;49.08;21.30;;;;;;;-0.03;63.97;97602.44;2074521;28;20226;-58
2022/12/18 12:54:45;;;;;;;49.33;22.60;;;;;;;-0.65;65.55;97605.88;2074145;28;20233;-59
2022/12/18 12:55:47;;;;;;;62.63;26.90;;;;;;;-0.27;65.18;97623.53;2074399;28;20212;-58
2022/12/18 12:56:55;;;;;;;45.13;21.25;;;;;;;0.02;64.99;97615.34;2075041;28;20229;-58
2022/12/18 12:58:31;;;;;;;47.67;21.75;;;;;;;-0.29;64.82;97611.50;2074201;28;20193;-58
2022/12/18 13:00:00;;;;;;;38.92;19.35;;;;;;;0.26;63.90;97613.94;2075673;28;20822;-58
2022/12/18 13:01:12;;;;;;;48.13;21.00;;;;;;;0.58;63.37;97619.41;2074633;28;20204;-58
2022/12/18 13:02:33;;;;;;;45.58;20.85;;;;;;;-0.03;64.31;97627.28;2074222;28;20197;-59
2022/12/18 13:03:48;;;;;;;47.42;21.00;;;;;;;0.35;63.65;97619.16;2074307;28;20329;-58
2022/12/18 13:05:07;;;;;;;45.83;20.17;;;;;;;0.69;63.07;97621.25;2075572;28;20251;-58
2022/12/18 13:06:19;;;;;;;59.25;26.80;;;;;;;0.53;62.99;97612.50;2076031;28;20197;-57
2022/12/18 13:07:28;;;;;;;50.47;21.95;;;;;;;0.37;64.17;97593.47;2076919;28;20197;-58
2022/12/18 13:08:50;;;;;;;48.85;23.17;;;;;;;0.39;63.63;97620.06;2075883;28;20236;-58
2022/12/18 13:10:12;;;;;;;49.42;22.20;;;;;;;0.03;64.43;97611.94;2076394;28;20200;-58
2022/12/18 13:13:14;;;;;;;45.20;21.58;;;;;;;-0.18;65.42;97607.38;2075834;28;20303;-58
2022/12/18 13:14:34;;;;;;;52.65;22.85;;;;;;;-0.16;65.37;97603.16;2075126;28;20208;-58
2022/12/18 13:15:47;;;;;;;52.10;24.65;;;;;;;-0.45;66.13;97607.88;2072657;28;20297;-58
2022/12/18 13:16:48;;;;;;;48.40;20.02;;;;;;;-0.60;66.89;97605.97;2073566;28;20674;-58
2022/12/18 13:18:13;;;;;;;52.20;24.92;;;;;;;-1.01;67.73;97604.47;2077483;28;20204;-58
2022/12/18 13:19:23;;;;;;;50.42;22.98;;;;;;;-1.15;68.43;97591.41;2076079;28;20205;-57
2022/12/18 13:20:34;;;;;;;55.58;21.73;;;;;;;-1.19;68.92;97592.22;2076071;28;20201;-57
2022/12/18 13:21:35;;;;;;;53.15;22.65;;;;;;;-1.28;68.37;97595.47;2072953;28;20209;-58
2022/12/18 13:22:48;;;;;;;51.75;23.10;;;;;;;-1.95;70.70;97597.66;2074967;28;20209;-57
2022/12/18 13:23:50;;;;;;;46.85;21.15;;;;;;;-2.15;71.94;97585.28;2076280;28;20248;-57
2022/12/18 13:24:51;;;;;;;48.15;22.30;;;;;;;-2.05;72.03;97583.78;2076297;28;20213;-57
2022/12/18 13:26:06;;;;;;;51.25;22.73;;;;;;;-2.14;72.15;97587.88;2076542;28;20231;-57
2022/12/18 13:27:46;;;;;;;45.05;21.35;;;;;;;-2.27;72.67;97592.72;2084712;28;20245;-57
2022/12/18 13:28:48;;;;;;;49.75;20.73;;;;;;;-2.57;73.26;97591.22;2074647;28;20222;-57
2022/12/18 13:29:51;;;;;;;56.45;22.52;;;;;;;-2.57;73.82;97571.63;2070221;28;20249;-57
2022/12/18 13:30:57;;;;;;;50.10;22.60;;;;;;;-2.57;73.36;97588.69;2076559;28;20245;-57
2022/12/18 13:32:00;;;;;;;57.95;22.58;;;;;;;-2.36;74.19;97588.25;2075615;28;20199;-57
2022/12/18 13:33:14;;;;;;;54.78;26.40;;;;;;;-2.36;74.37;97591.69;2075381;28;20225;-57
2022/12/18 13:34:17;;;;;;;49.85;22.02;;;;;;;-2.50;73.72;97593.06;2076691;28;20868;-57
2022/12/18 13:35:29;;;;;;;51.15;20.08;;;;;;;-2.28;73.71;97596.97;2076206;28;20732;-57
2022/12/18 13:36:33;;;;;;;49.55;23.13;;;;;;;-2.65;73.48;97574.00;2076104;28;20199;-57
2022/12/18 13:37:42;;;;;;;48.00;21.58;;;;;;;-2.51;74.03;97569.19;2084075;28;20198;-57
2022/12/18 13:38:44;;;;;;;50.08;21.25;;;;;;;-2.54;73.96;97581.94;2079009;28;20256;-57
2022/12/18 13:39:46;;;;;;;50.00;20.63;;;;;;;-2.32;73.61;97577.28;2073346;28;21063;-57
2022/12/18 13:40:47;;;;;;;44.83;20.40;;;;;;;-2.32;73.25;97584.97;2072458;28;20206;-57
2022/12/18 13:42:05;;;;;;;49.15;22.25;;;;;;;-2.16;73.28;97579.31;2073941;28;20204;-57
2022/12/18 13:43:19;;;;;;;45.70;19.40;;;;;;;-2.31;72.88;97584.97;2075653;28;20235;-57
2022/12/18 13:44:43;;;;;;;49.38;20.25;;;;;;;-2.41;73.24;97580.50;2075138;28;20197;-57
2022/12/18 13:45:59;;;;;;;48.92;20.67;;;;;;;-2.48;73.53;97584.63;2084390;28;20224;-58
2022/12/18 13:47:05;;;;;;;45.20;18.92;;;;;;;-2.43;73.62;97583.88;2082578;28;20196;-58
2022/12/18 13:48:15;;;;;;;50.50;21.17;;;;;;;-2.34;73.30;97578.94;2076265;28;20312;-58